Time;durP1;ratioP1;P1;durP2;ratioP2;P2;SDS_P1;SDS_P2;PMS_P1;PMS_P2;Temp;Humidity;BMP_temperature;BMP_pressure;BME280_temperature;BME280_humidity;BME280_pressure;Samples;Min_cycle;Max_cycle;Signal;HPM_P1;HPM_P2
2021/07/28 00:02:16;;;;;;;8.90;4.90;;;;;;;22.49;100.00;96789.66;5031493;28;20257;-83
2021/07/28 00:04:44;;;;;;;6.20;5.10;;;;;;;22.53;100.00;96798.88;5032003;28;20566;-83
2021/07/28 00:07:12;;;;;;;4.47;4.17;;;;;;;22.70;100.00;96795.63;5031784;28;20205;-83
2021/07/28 00:09:39;;;;;;;4.17;3.60;;;;;;;22.72;100.00;96788.16;5031745;28;20195;-83
2021/07/28 00:12:07;;;;;;;4.33;3.93;;;;;;;22.72;100.00;96786.34;5032014;28;20663;-83
2021/07/28 00:14:36;;;;;;;6.37;3.97;;;;;;;22.51;100.00;96784.91;5031550;28;20195;-83
2021/07/28 00:17:05;;;;;;;8.27;4.37;;;;;;;22.52;100.00;96783.84;5031473;28;20200;-83
2021/07/28 00:19:34;;;;;;;6.13;4.20;;;;;;;22.72;100.00;96783.66;5031857;28;20585;-83
2021/07/28 00:24:46;;;;;;;4.63;4.20;;;;;;;22.61;100.00;96781.69;5032504;28;20185;-83
2021/07/28 00:27:13;;;;;;;7.33;4.30;;;;;;;22.55;100.00;96780.75;5031360;28;20616;-83
2021/07/28 00:29:42;;;;;;;4.20;3.60;;;;;;;22.37;100.00;96775.34;5031621;28;20199;-83
2021/07/28 00:32:09;;;;;;;4.00;3.70;;;;;;;22.15;100.00;96774.13;5031145;28;20195;-83
2021/07/28 00:34:36;;;;;;;8.27;4.00;;;;;;;22.36;100.00;96767.53;5032141;28;20230;-83
2021/07/28 00:37:04;;;;;;;5.07;4.43;;;;;;;22.41;100.00;96771.19;5031443;28;20203;-83
2021/07/28 00:39:31;;;;;;;4.47;4.07;;;;;;;22.16;100.00;96771.19;5031329;28;20309;-83
2021/07/28 00:41:59;;;;;;;4.90;3.80;;;;;;;22.15;100.00;96768.75;5031441;28;20202;-83
2021/07/28 00:44:26;;;;;;;4.33;3.97;;;;;;;22.16;100.00;96765.03;5031549;28;20229;-83
2021/07/28 00:46:55;;;;;;;4.97;3.77;;;;;;;22.13;100.00;96768.94;5031066;28;20624;-83
2021/07/28 00:49:24;;;;;;;4.97;3.93;;;;;;;21.97;100.00;96767.63;5031838;28;20191;-82
2021/07/28 00:51:53;;;;;;;6.30;4.57;;;;;;;21.89;100.00;96767.91;5031233;28;20659;-83
2021/07/28 00:54:20;;;;;;;4.63;3.97;;;;;;;21.75;100.00;96766.34;5031387;28;20199;-83
2021/07/28 00:56:48;;;;;;;7.50;4.43;;;;;;;21.66;100.00;96757.78;5030902;28;20206;-83
2021/07/28 00:59:16;;;;;;;5.57;4.13;;;;;;;21.53;100.00;96764.03;5031353;28;20260;-83
2021/07/28 01:01:43;;;;;;;5.00;4.60;;;;;;;21.53;100.00;96756.00;5033101;28;20205;-82
2021/07/28 01:04:12;;;;;;;4.00;3.70;;;;;;;21.51;100.00;96758.09;5035048;28;20765;-83
2021/07/28 01:06:39;;;;;;;4.70;4.10;;;;;;;21.62;100.00;96758.44;5034435;28;20668;-83
2021/07/28 01:09:07;;;;;;;5.00;4.40;;;;;;;21.65;100.00;96756.16;5034872;28;20294;-83
2021/07/28 01:11:37;;;;;;;5.17;4.20;;;;;;;21.74;100.00;96760.19;5034601;28;20258;-83
2021/07/28 01:14:05;;;;;;;3.73;3.50;;;;;;;21.62;100.00;96747.75;5034814;28;20261;-82
2021/07/28 01:16:36;;;;;;;13.03;6.57;;;;;;;21.35;100.00;96750.59;5034379;28;20209;-82
2021/07/28 01:19:07;;;;;;;20.33;17.30;;;;;;;21.31;100.00;96738.66;5034656;28;20661;-82
2021/07/28 01:21:35;;;;;;;17.07;15.27;;;;;;;21.56;100.00;96744.88;5034576;28;20194;-82
2021/07/28 01:24:06;;;;;;;9.93;8.43;;;;;;;21.73;100.00;96744.38;5034419;28;20293;-82
2021/07/28 01:26:36;;;;;;;7.00;6.33;;;;;;;21.55;100.00;96747.78;5034533;28;20625;-82
2021/07/28 01:29:03;;;;;;;9.27;6.97;;;;;;;21.63;100.00;96744.84;5034527;28;20202;-83
2021/07/28 01:31:31;;;;;;;8.20;6.87;;;;;;;21.67;100.00;96743.38;5034211;28;20289;-82
2021/07/28 01:33:58;;;;;;;5.83;5.13;;;;;;;21.31;100.00;96739.47;5034408;28;20198;-79
2021/07/28 01:36:26;;;;;;;5.07;4.67;;;;;;;21.25;100.00;96744.84;5034405;28;20242;-79
2021/07/28 01:38:53;;;;;;;6.20;5.70;;;;;;;21.40;100.00;96740.03;5034365;28;20241;-79
2021/07/28 01:41:22;;;;;;;7.57;6.67;;;;;;;21.42;100.00;96743.34;5033992;28;20261;-79
2021/07/28 01:43:49;;;;;;;6.33;5.47;;;;;;;21.27;100.00;96734.78;5034331;28;20221;-79
2021/07/28 01:46:18;;;;;;;6.00;5.40;;;;;;;21.45;100.00;96734.06;5034286;28;20217;-79
2021/07/28 01:48:45;;;;;;;6.07;5.40;;;;;;;21.51;100.00;96742.06;5034204;28;20187;-79
2021/07/28 01:51:12;;;;;;;11.80;5.23;;;;;;;21.40;100.00;96737.38;5034430;28;20562;-79
2021/07/28 01:53:41;;;;;;;6.47;5.93;;;;;;;21.34;100.00;96732.91;5034330;28;20646;-79
2021/07/28 01:56:08;;;;;;;5.37;4.80;;;;;;;21.51;100.00;96747.41;5033749;28;20289;-79
2021/07/28 01:58:39;;;;;;;7.27;5.03;;;;;;;21.49;100.00;96744.13;5033923;28;20289;-79
2021/07/28 02:01:06;;;;;;;5.80;5.20;;;;;;;21.20;100.00;96737.47;5033816;28;20679;-79
2021/07/28 02:03:34;;;;;;;20.80;6.30;;;;;;;21.11;100.00;96728.06;5033778;28;20573;-79
2021/07/28 02:06:01;;;;;;;5.97;4.60;;;;;;;21.26;100.00;96730.44;5033968;28;20199;-79
2021/07/28 02:08:28;;;;;;;4.13;3.83;;;;;;;21.09;100.00;96732.78;5033695;28;20241;-79
2021/07/28 02:10:55;;;;;;;7.80;4.57;;;;;;;20.91;100.00;96738.84;5045663;28;20746;-78
2021/07/28 02:13:23;;;;;;;5.17;4.77;;;;;;;20.69;100.00;96734.84;5052438;28;20202;-78
2021/07/28 02:15:52;;;;;;;5.00;4.60;;;;;;;20.79;100.00;96727.19;5053288;28;20649;-80
2021/07/28 02:18:22;;;;;;;6.97;3.93;;;;;;;21.10;100.00;96731.78;5053438;28;20197;-80
2021/07/28 02:20:49;;;;;;;7.00;6.40;;;;;;;21.23;100.00;96726.34;5053307;28;20232;-79
2021/07/28 02:23:16;;;;;;;5.60;5.07;;;;;;;21.08;100.00;96726.63;5053798;28;20200;-80
2021/07/28 02:25:43;;;;;;;7.13;5.63;;;;;;;21.12;100.00;96730.50;5053179;28;20201;-80
2021/07/28 02:28:10;;;;;;;8.00;6.00;;;;;;;21.11;100.00;96725.38;5053174;28;20658;-79
2021/07/28 02:30:38;;;;;;;9.67;8.70;;;;;;;21.00;100.00;96724.22;5053364;28;20206;-79
2021/07/28 02:33:06;;;;;;;7.80;6.00;;;;;;;21.12;100.00;96722.50;5053057;28;20285;-79
2021/07/28 02:35:34;;;;;;;5.47;5.07;;;;;;;20.93;100.00;96723.44;5053013;28;20293;-79
2021/07/28 02:38:01;;;;;;;5.63;5.13;;;;;;;20.69;100.00;96724.16;5053007;28;20271;-79
2021/07/28 02:40:28;;;;;;;10.57;5.97;;;;;;;21.06;100.00;96722.53;5053438;28;20268;-79
2021/07/28 02:42:55;;;;;;;5.83;5.33;;;;;;;21.12;100.00;96725.16;5052915;28;20252;-79
2021/07/28 02:45:23;;;;;;;5.73;5.33;;;;;;;20.95;100.00;96729.38;5053006;28;20202;-79
2021/07/28 02:47:50;;;;;;;5.73;4.70;;;;;;;20.83;100.00;96720.38;5052256;28;20325;-79
2021/07/28 02:50:19;;;;;;;5.83;5.33;;;;;;;20.84;100.00;96724.69;5052948;28;20234;-80
2021/07/28 02:52:46;;;;;;;6.77;5.63;;;;;;;20.75;100.00;96713.44;5052823;28;20248;-79
2021/07/28 02:55:14;;;;;;;5.10;4.60;;;;;;;20.67;100.00;96717.16;5052167;28;20241;-79
2021/07/28 02:57:41;;;;;;;6.83;5.17;;;;;;;20.71;100.00;96714.06;5052107;28;20198;-79
2021/07/28 03:00:10;;;;;;;7.30;5.70;;;;;;;20.67;100.00;96721.66;5052782;28;20771;-79
2021/07/28 03:02:37;;;;;;;6.77;5.30;;;;;;;20.74;100.00;96727.00;5052549;28;20285;-79
2021/07/28 03:05:05;;;;;;;5.33;4.83;;;;;;;20.77;100.00;96726.56;5052711;28;20685;-79
2021/07/28 03:07:34;;;;;;;5.43;5.03;;;;;;;20.56;100.00;96720.47;5052474;28;20230;-79
2021/07/28 03:10:01;;;;;;;9.70;5.60;;;;;;;20.42;100.00;96719.66;5052348;28;20202;-79
2021/07/28 03:12:29;;;;;;;11.07;8.50;;;;;;;20.55;100.00;96724.19;5052722;28;20248;-79
2021/07/28 03:14:56;;;;;;;9.77;8.80;;;;;;;20.65;100.00;96724.56;5052445;28;20205;-79
2021/07/28 03:17:23;;;;;;;22.10;11.53;;;;;;;20.66;100.00;96723.53;5052007;28;20204;-79
2021/07/28 03:19:51;;;;;;;11.27;10.07;;;;;;;20.54;100.00;96724.38;5052392;28;20229;-79
2021/07/28 03:22:18;;;;;;;10.03;9.00;;;;;;;20.31;100.00;96716.84;5052233;28;20198;-79
2021/07/28 03:24:46;;;;;;;9.87;8.67;;;;;;;20.24;100.00;96719.50;5052157;28;20286;-78
2021/07/28 03:27:14;;;;;;;8.37;7.00;;;;;;;20.56;100.00;96707.13;5051909;28;20210;-79
2021/07/28 03:29:41;;;;;;;9.93;7.03;;;;;;;20.64;100.00;96720.28;5052569;28;20636;-79
2021/07/28 03:32:09;;;;;;;7.70;7.00;;;;;;;20.50;100.00;96715.97;5051997;28;20285;-79
2021/07/28 03:34:38;;;;;;;6.63;6.13;;;;;;;20.74;100.00;96717.13;5052141;28;20264;-79
2021/07/28 03:37:06;;;;;;;6.63;6.07;;;;;;;20.65;100.00;96719.22;5052014;28;20224;-79
2021/07/28 03:39:34;;;;;;;6.30;5.43;;;;;;;20.75;100.00;96723.28;5052097;28;20209;-79
2021/07/28 03:42:02;;;;;;;6.30;5.80;;;;;;;20.79;100.00;96728.00;5051724;28;20723;-79
2021/07/28 03:44:29;;;;;;;6.73;5.33;;;;;;;20.89;100.00;96714.19;5052356;28;20280;-79
2021/07/28 03:46:57;;;;;;;6.73;5.23;;;;;;;20.90;100.00;96721.19;5051244;28;20237;-79
2021/07/28 03:49:24;;;;;;;5.80;5.23;;;;;;;20.88;100.00;96717.88;5052001;28;20206;-79
2021/07/28 03:51:51;;;;;;;7.53;6.83;;;;;;;20.86;100.00;96719.97;5051774;28;20288;-79
2021/07/28 03:54:18;;;;;;;11.80;10.47;;;;;;;21.16;100.00;96714.88;5052103;28;20248;-79
2021/07/28 03:56:46;;;;;;;19.77;14.17;;;;;;;20.93;100.00;96706.59;5051993;28;20650;-79
2021/07/28 03:59:15;;;;;;;12.37;11.07;;;;;;;20.79;100.00;96714.66;5051796;28;20193;-79
2021/07/28 04:01:42;;;;;;;8.57;7.67;;;;;;;20.81;100.00;96711.75;5051472;28;20698;-79
2021/07/28 04:04:09;;;;;;;11.00;7.27;;;;;;;20.88;100.00;96718.69;5051881;28;20288;-79
2021/07/28 04:06:36;;;;;;;8.57;6.93;;;;;;;20.97;100.00;96705.13;5051380;28;20259;-79
2021/07/28 04:09:03;;;;;;;10.20;6.43;;;;;;;20.97;100.00;96716.63;5052185;28;20202;-79
2021/07/28 04:11:31;;;;;;;7.83;6.00;;;;;;;20.88;100.00;96713.34;5052184;28;20277;-79
2021/07/28 04:13:58;;;;;;;14.80;11.97;;;;;;;21.03;100.00;96717.63;5051717;28;20738;-79
2021/07/28 04:16:27;;;;;;;13.90;11.30;;;;;;;20.97;100.00;96716.63;5051303;28;20288;-79
2021/07/28 04:18:54;;;;;;;14.93;9.50;;;;;;;20.99;100.00;96711.91;5051905;28;20232;-79
2021/07/28 04:21:21;;;;;;;13.33;12.03;;;;;;;20.77;100.00;96714.03;5051519;28;20272;-79
2021/07/28 04:23:48;;;;;;;17.47;11.50;;;;;;;20.57;100.00;96710.63;5051496;28;20257;-79
2021/07/28 04:26:16;;;;;;;11.73;10.60;;;;;;;20.51;100.00;96712.28;5051329;28;20247;-79
2021/07/28 04:28:43;;;;;;;10.53;9.53;;;;;;;20.53;100.00;96712.06;5051579;28;20681;-79
2021/07/28 04:31:10;;;;;;;14.67;11.77;;;;;;;20.67;100.00;96711.81;5051882;28;20634;-79
2021/07/28 04:33:39;;;;;;;13.17;9.93;;;;;;;21.04;100.00;96716.59;5051368;28;20646;-78
2021/07/28 04:36:06;;;;;;;10.63;9.73;;;;;;;21.08;100.00;96713.28;5052938;28;20240;-79
2021/07/28 04:38:33;;;;;;;9.83;8.47;;;;;;;21.16;100.00;96712.19;5055010;28;20215;-79
2021/07/28 04:41:01;;;;;;;8.17;6.40;;;;;;;20.86;100.00;96717.28;5055350;28;20312;-78
2021/07/28 04:43:28;;;;;;;7.20;6.60;;;;;;;20.88;100.00;96720.56;5055163;28;20194;-79
2021/07/28 04:45:59;;;;;;;10.10;7.10;;;;;;;20.96;100.00;96715.00;5055424;28;20233;-79
2021/07/28 04:48:27;;;;;;;7.80;6.67;;;;;;;21.23;100.00;96709.47;5054675;28;20677;-78
2021/07/28 04:50:57;;;;;;;8.37;7.60;;;;;;;21.26;100.00;96707.19;5055514;28;20193;-78
2021/07/28 04:53:28;;;;;;;7.53;6.47;;;;;;;21.26;100.00;96709.88;5054728;28;20236;-78
2021/07/28 04:55:56;;;;;;;7.83;6.77;;;;;;;21.42;100.00;96710.44;5055743;28;20208;-79
2021/07/28 04:58:24;;;;;;;6.90;6.27;;;;;;;21.28;100.00;96715.03;5054906;28;20791;-78
2021/07/28 05:00:52;;;;;;;7.27;6.50;;;;;;;21.27;100.00;96710.72;5054968;28;20317;-79
2021/07/28 05:03:20;;;;;;;7.73;6.73;;;;;;;21.37;100.00;96708.38;5054633;28;20197;-78
2021/07/28 05:05:47;;;;;;;14.40;7.73;;;;;;;21.45;100.00;96693.97;5054964;28;20237;-78
2021/07/28 05:08:16;;;;;;;7.80;7.07;;;;;;;21.47;100.00;96695.34;5055052;28;20643;-78
2021/07/28 05:10:43;;;;;;;9.83;7.80;;;;;;;21.53;100.00;96699.84;5055126;28;20221;-78
2021/07/28 05:13:10;;;;;;;9.73;8.73;;;;;;;21.62;100.00;96696.94;5054402;28;20245;-78
2021/07/28 05:15:37;;;;;;;15.90;8.67;;;;;;;21.66;100.00;96688.25;5054766;28;20237;-79
2021/07/28 05:18:05;;;;;;;8.03;7.30;;;;;;;21.71;100.00;96695.59;5054604;28;20205;-79
2021/07/28 05:20:32;;;;;;;8.23;6.60;;;;;;;21.79;100.00;96693.47;5054462;28;20244;-79
2021/07/28 05:23:00;;;;;;;17.93;8.07;;;;;;;21.92;100.00;96697.06;5054823;28;20260;-79
2021/07/28 05:25:29;;;;;;;9.80;7.13;;;;;;;22.07;100.00;96710.94;5054610;28;20667;-79
2021/07/28 05:27:56;;;;;;;8.67;6.20;;;;;;;22.30;100.00;96710.31;5054339;28;20198;-78
2021/07/28 05:30:24;;;;;;;12.87;7.50;;;;;;;22.41;100.00;96714.13;5054533;28;20237;-79
2021/07/28 05:32:51;;;;;;;11.60;6.57;;;;;;;22.55;100.00;96721.81;5054018;28;20201;-79
2021/07/28 05:35:18;;;;;;;8.60;7.23;;;;;;;22.68;100.00;96717.31;5054709;28;20194;-78
2021/07/28 05:37:46;;;;;;;13.23;8.07;;;;;;;22.82;100.00;96726.84;5054310;28;20233;-79
2021/07/28 05:40:14;;;;;;;7.67;6.73;;;;;;;22.96;100.00;96722.16;5054416;28;20284;-79
2021/07/28 05:42:43;;;;;;;22.07;8.77;;;;;;;23.06;100.00;96721.63;5054274;28;20667;-78
2021/07/28 05:45:10;;;;;;;16.90;7.73;;;;;;;23.25;100.00;96717.88;5054529;28;20271;-79
2021/07/28 05:47:38;;;;;;;18.17;8.13;;;;;;;23.43;100.00;96725.03;5053809;28;20706;-79
2021/07/28 05:50:06;;;;;;;12.67;7.43;;;;;;;23.65;100.00;96722.63;5053938;28;20293;-79
2021/07/28 05:52:33;;;;;;;16.83;6.90;;;;;;;23.81;100.00;96727.38;5053967;28;20232;-79
2021/07/28 05:55:00;;;;;;;35.90;9.37;;;;;;;24.02;100.00;96726.00;5054042;28;20288;-79
2021/07/28 05:57:28;;;;;;;12.83;6.33;;;;;;;24.19;100.00;96721.56;5053793;28;20194;-78
2021/07/28 05:59:56;;;;;;;14.40;6.70;;;;;;;24.32;100.00;96719.69;5053802;28;20226;-79
2021/07/28 06:02:23;;;;;;;9.83;6.97;;;;;;;24.47;100.00;96730.81;5054092;28;20661;-78
2021/07/28 06:04:51;;;;;;;8.70;6.73;;;;;;;24.63;100.00;96723.91;5053853;28;20194;-79
2021/07/28 06:07:18;;;;;;;9.47;6.70;;;;;;;24.93;100.00;96726.38;5053657;28;20202;-79
2021/07/28 06:09:45;;;;;;;9.40;6.53;;;;;;;25.13;100.00;96729.50;5053879;28;20198;-79
2021/07/28 06:12:16;;;;;;;8.63;5.77;;;;;;;25.30;100.00;96726.06;5053294;28;20232;-79
2021/07/28 06:14:43;;;;;;;6.90;5.73;;;;;;;25.45;100.00;96725.50;5054010;28;20197;-79
2021/07/28 06:17:13;;;;;;;11.47;6.43;;;;;;;25.60;100.00;96728.47;5053445;28;20241;-79
2021/07/28 06:19:42;;;;;;;7.90;4.80;;;;;;;25.78;100.00;96735.50;5053946;28;20301;-79
2021/07/28 06:22:10;;;;;;;7.35;4.63;;;;;;;26.04;100.00;96734.06;5053012;28;20224;-79
2021/07/28 06:24:37;;;;;;;5.30;4.65;;;;;;;26.21;100.00;96742.94;5053518;28;20202;-79
2021/07/28 06:27:05;;;;;;;5.22;4.70;;;;;;;26.33;100.00;96738.28;5053244;28;20229;-79
2021/07/28 06:29:32;;;;;;;5.68;4.95;;;;;;;26.48;100.00;96737.72;5053665;28;20202;-79
2021/07/28 06:31:59;;;;;;;7.28;4.50;;;;;;;26.56;100.00;96741.88;5053018;28;20284;-79
2021/07/28 06:34:28;;;;;;;5.78;4.80;;;;;;;26.71;100.00;96749.38;5053527;28;20682;-79
2021/07/28 06:36:55;;;;;;;6.25;5.75;;;;;;;27.04;100.00;96748.41;5053094;28;20284;-79
2021/07/28 06:39:23;;;;;;;5.88;5.07;;;;;;;27.17;100.00;96742.66;5053208;28;20670;-79
2021/07/28 06:41:50;;;;;;;5.30;4.85;;;;;;;27.36;100.00;96747.72;5052701;28;20264;-79
2021/07/28 06:44:17;;;;;;;6.57;5.97;;;;;;;27.56;100.00;96750.63;5053127;28;20285;-79
2021/07/28 06:46:45;;;;;;;5.40;4.90;;;;;;;27.76;100.00;96754.63;5052663;28;21044;-79
2021/07/28 06:49:12;;;;;;;7.85;5.20;;;;;;;27.80;100.00;96753.06;5053119;28;20237;-79
2021/07/28 06:51:41;;;;;;;5.55;4.90;;;;;;;27.96;100.00;96754.81;5052571;28;20285;-79
2021/07/28 06:54:08;;;;;;;6.50;5.32;;;;;;;28.14;100.00;96751.72;5053180;28;20198;-80
2021/07/28 06:56:35;;;;;;;6.18;5.65;;;;;;;28.48;100.00;96754.16;5053047;28;20236;-79
2021/07/28 06:59:03;;;;;;;6.03;4.70;;;;;;;28.50;100.00;96759.28;5052185;28;20666;-79
2021/07/28 07:01:31;;;;;;;8.48;4.88;;;;;;;28.72;100.00;96756.44;5052518;28;20229;-80
2021/07/28 07:03:58;;;;;;;8.80;5.10;;;;;;;28.87;100.00;96759.22;5052955;28;20199;-80
2021/07/28 07:06:25;;;;;;;11.65;5.60;;;;;;;28.88;100.00;96766.25;5052901;28;20219;-79
2021/07/28 07:08:54;;;;;;;10.20;5.63;;;;;;;29.01;100.00;96763.09;5052603;28;20713;-79
2021/07/28 07:11:21;;;;;;;9.85;5.60;;;;;;;29.05;100.00;96756.06;5052763;28;20253;-79
2021/07/28 07:13:50;;;;;;;6.63;5.05;;;;;;;29.26;100.00;96759.66;5052454;28;20209;-79
2021/07/28 07:16:17;;;;;;;6.80;5.43;;;;;;;29.37;100.00;96757.81;5052237;28;20198;-80
2021/07/28 07:18:44;;;;;;;6.55;5.78;;;;;;;29.61;100.00;96764.38;5052360;28;20244;-79
2021/07/28 07:21:11;;;;;;;7.38;5.95;;;;;;;29.72;100.00;96756.28;5052377;28;20231;-80
2021/07/28 07:23:39;;;;;;;12.50;6.43;;;;;;;29.95;100.00;96769.31;5052309;28;20237;-80
2021/07/28 07:26:07;;;;;;;5.90;5.30;;;;;;;30.24;100.00;96764.22;5052119;28;20197;-80
2021/07/28 07:28:35;;;;;;;7.97;5.35;;;;;;;30.29;100.00;96764.19;5052423;28;20229;-80
2021/07/28 07:31:02;;;;;;;10.13;5.72;;;;;;;30.54;100.00;96760.63;5052229;28;20201;-80
2021/07/28 07:33:39;;;;;;;7.45;6.30;;;;;;;30.64;100.00;96761.69;5052269;28;20198;-80
2021/07/28 07:36:07;;;;;;;8.32;5.80;;;;;;;30.65;100.00;96766.03;5052272;28;20200;-79
2021/07/28 07:38:35;;;;;;;8.40;5.80;;;;;;;30.44;100.00;96766.06;5052113;28;20202;-79
2021/07/28 07:41:02;;;;;;;7.28;6.68;;;;;;;30.36;100.00;96769.34;5052137;28;20198;-79
2021/07/28 07:43:31;;;;;;;11.90;7.00;;;;;;;30.32;100.00;96763.66;5051822;28;20253;-79
2021/07/28 07:45:59;;;;;;;9.80;6.78;;;;;;;30.92;100.00;96761.09;5052027;28;20197;-80
2021/07/28 07:48:27;;;;;;;8.68;7.10;;;;;;;31.18;100.00;96761.81;5051629;28;20238;-79
2021/07/28 07:50:55;;;;;;;8.05;6.43;;;;;;;31.38;100.00;96763.66;5052071;28;20653;-80
2021/07/28 07:53:22;;;;;;;7.75;5.63;;;;;;;31.47;100.00;96751.09;5051764;28;20193;-80
2021/07/28 07:55:50;;;;;;;7.03;5.95;;;;;;;31.47;100.00;96756.53;5051363;28;20293;-79
2021/07/28 07:58:17;;;;;;;5.88;5.47;;;;;;;31.70;100.00;96755.03;5051609;28;20197;-80
2021/07/28 08:00:46;;;;;;;7.10;6.50;;;;;;;31.89;100.00;96743.50;5049948;28;20198;-80
2021/07/28 08:03:13;;;;;;;6.53;5.88;;;;;;;31.69;100.00;96753.38;5051616;28;20592;-80
2021/07/28 08:05:40;;;;;;;11.32;6.20;;;;;;;31.71;100.00;96753.94;5051578;28;20293;-80
2021/07/28 08:08:08;;;;;;;7.90;6.20;;;;;;;31.98;100.00;96751.88;5051703;28;20289;-80
2021/07/28 08:10:35;;;;;;;6.95;6.20;;;;;;;31.70;100.00;96748.78;5051852;28;20686;-80
2021/07/28 08:13:02;;;;;;;9.38;6.78;;;;;;;32.10;100.00;96736.81;5056168;28;20228;-80
2021/07/28 08:15:30;;;;;;;8.43;5.80;;;;;;;32.24;100.00;96741.59;5056238;28;20579;-80
2021/07/28 08:18:00;;;;;;;9.20;6.20;;;;;;;32.01;100.00;96743.13;5055758;28;20689;-80
2021/07/28 08:20:27;;;;;;;8.18;6.88;;;;;;;32.25;100.00;96738.59;5055603;28;20236;-80
2021/07/28 08:22:55;;;;;;;11.30;6.85;;;;;;;32.40;100.00;96737.63;5055803;28;20311;-80
2021/07/28 08:25:22;;;;;;;6.50;5.95;;;;;;;32.59;100.00;96732.28;5055768;28;20692;-81
2021/07/28 08:27:49;;;;;;;9.65;5.93;;;;;;;32.64;100.00;96740.41;5055545;28;20201;-80
2021/07/28 08:30:16;;;;;;;8.48;5.72;;;;;;;32.69;100.00;96732.19;5055772;28;20201;-80
2021/07/28 08:32:44;;;;;;;7.78;5.80;;;;;;;32.67;100.00;96728.94;5055400;28;20233;-81
2021/07/28 08:35:13;;;;;;;6.00;5.35;;;;;;;32.82;100.00;96736.94;5055539;28;20233;-80
2021/07/28 08:37:41;;;;;;;6.93;6.07;;;;;;;32.72;100.00;96720.72;5055681;28;20634;-81
2021/07/28 08:40:11;;;;;;;7.45;6.50;;;;;;;32.69;100.00;96724.00;5055516;28;20662;-81
2021/07/28 08:42:40;;;;;;;9.95;6.25;;;;;;;32.92;100.00;96728.63;5055185;28;20223;-81
2021/07/28 08:45:09;;;;;;;5.35;4.85;;;;;;;32.76;100.00;96720.94;5055382;28;20621;-81
2021/07/28 08:47:37;;;;;;;6.45;5.38;;;;;;;32.97;100.00;96716.09;5055044;28;20245;-81
2021/07/28 08:50:06;;;;;;;11.45;5.50;;;;;;;32.99;100.00;96725.59;5054824;28;20289;-81
2021/07/28 08:52:35;;;;;;;6.30;5.70;;;;;;;33.30;100.00;96720.56;5055067;28;20680;-80
2021/07/28 08:55:03;;;;;;;9.20;6.45;;;;;;;33.35;100.00;96716.94;5055523;28;20615;-81
2021/07/28 08:57:33;;;;;;;9.60;5.63;;;;;;;33.27;100.00;96718.41;5055048;28;20226;-81
2021/07/28 09:00:00;;;;;;;6.72;4.85;;;;;;;33.02;100.00;96714.13;5055541;28;20201;-81
2021/07/28 09:02:28;;;;;;;13.98;6.00;;;;;;;32.91;100.00;96718.06;5054593;28;20230;-81
2021/07/28 09:04:56;;;;;;;9.43;6.00;;;;;;;32.81;100.00;96716.25;5055350;28;20281;-81
2021/07/28 09:07:23;;;;;;;13.48;6.22;;;;;;;33.09;100.00;96706.41;5054832;28;20252;-81
2021/07/28 09:09:54;;;;;;;7.45;6.25;;;;;;;33.23;100.00;96709.22;5055014;28;20198;-81
2021/07/28 09:12:30;;;;;;;6.68;5.10;;;;;;;33.43;100.00;96707.28;5054495;28;20182;-81
2021/07/28 09:15:01;;;;;;;10.27;6.00;;;;;;;33.21;100.00;96710.59;5055228;28;20212;-81
2021/07/28 09:17:29;;;;;;;14.23;6.28;;;;;;;33.18;100.00;96703.81;5054684;28;20190;-81
2021/07/28 09:19:58;;;;;;;6.28;5.40;;;;;;;33.23;100.00;96700.25;5054613;28;20198;-81
2021/07/28 09:22:31;;;;;;;7.43;5.95;;;;;;;33.32;100.00;96707.47;5054130;28;20355;-82
2021/07/28 09:25:15;;;;;;;10.73;5.80;;;;;;;33.75;100.00;96704.66;5054646;28;20233;-81
2021/07/28 09:27:45;;;;;;;6.40;5.80;;;;;;;33.74;100.00;96700.31;5054180;28;20578;-81
2021/07/28 09:30:16;;;;;;;7.40;6.20;;;;;;;33.72;100.00;96701.72;5054601;28;20194;-82
2021/07/28 09:33:09;;;;;;;6.53;5.80;;;;;;;33.83;100.00;96701.25;5054471;28;20194;-81
2021/07/28 09:36:15;;;;;;;8.43;5.82;;;;;;;33.90;100.00;96694.63;5054303;28;20188;-81
2021/07/28 09:38:46;;;;;;;10.40;6.43;;;;;;;33.70;100.00;96691.09;5054337;28;20192;-81
2021/07/28 09:41:26;;;;;;;11.60;6.18;;;;;;;33.36;100.00;96692.16;5054319;28;20186;-81
2021/07/28 09:43:56;;;;;;;6.40;5.22;;;;;;;33.61;100.00;96682.00;5054299;28;20682;-80
2021/07/28 09:46:26;;;;;;;11.18;5.20;;;;;;;34.12;100.00;96683.06;5053969;28;20201;-81
2021/07/28 09:48:54;;;;;;;5.78;5.13;;;;;;;34.13;100.00;96680.06;5054278;28;20192;-81
2021/07/28 09:51:32;;;;;;;6.65;5.68;;;;;;;34.10;100.00;96677.94;5054399;28;20198;-81
2021/07/28 09:54:02;;;;;;;10.63;5.75;;;;;;;34.11;100.00;96676.81;5054167;28;20569;-81
2021/07/28 09:56:35;;;;;;;6.25;5.18;;;;;;;34.12;100.00;96674.91;5053637;28;20264;-81
2021/07/28 09:59:04;;;;;;;7.00;5.38;;;;;;;33.85;100.00;96670.97;5054058;28;20711;-81
2021/07/28 10:01:33;;;;;;;5.50;4.95;;;;;;;33.97;100.00;96673.22;5054134;28;20194;-81
2021/07/28 10:04:02;;;;;;;7.13;5.20;;;;;;;34.17;100.00;96666.63;5053986;28;20291;-81
2021/07/28 10:06:38;;;;;;;9.85;5.00;;;;;;;34.25;100.00;96664.00;5053794;28;20210;-81
2021/07/28 10:09:07;;;;;;;7.97;5.25;;;;;;;34.33;100.00;96665.25;5053927;28;20227;-81
2021/07/28 10:11:36;;;;;;;8.02;5.07;;;;;;;34.36;100.00;96667.34;5053607;28;20228;-81
2021/07/28 10:14:05;;;;;;;14.60;5.15;;;;;;;34.24;100.00;96659.66;5053605;28;20208;-82
2021/07/28 10:16:33;;;;;;;5.72;4.75;;;;;;;34.44;100.00;96660.41;5053538;28;20237;-81
2021/07/28 10:19:03;;;;;;;7.72;6.05;;;;;;;34.43;100.00;96656.03;5053606;28;20284;-81
2021/07/28 10:21:33;;;;;;;13.25;5.40;;;;;;;34.66;100.00;96657.00;5053928;28;20198;-81
2021/07/28 10:24:00;;;;;;;6.43;5.07;;;;;;;34.52;100.00;96662.44;5053321;28;20228;-81
2021/07/28 10:26:28;;;;;;;10.70;5.85;;;;;;;34.41;100.00;96659.09;5053385;28;20698;-81
2021/07/28 10:28:57;;;;;;;5.88;4.82;;;;;;;34.52;100.00;96652.34;5053402;28;20204;-82
2021/07/28 10:31:26;;;;;;;8.65;6.05;;;;;;;34.68;100.00;96650.13;5053762;28;20205;-81
2021/07/28 10:33:55;;;;;;;6.47;5.28;;;;;;;34.76;100.00;96646.66;5052407;28;20665;-81
2021/07/28 10:36:23;;;;;;;14.43;5.80;;;;;;;34.67;100.00;96651.22;5053213;28;20256;-81
2021/07/28 10:38:55;;;;;;;8.82;5.70;;;;;;;34.82;100.00;96647.38;5053194;28;20223;-81
2021/07/28 10:41:49;;;;;;;6.72;5.45;;;;;;;34.61;100.00;96638.81;5053385;28;20224;-81
2021/07/28 10:44:20;;;;;;;9.07;5.55;;;;;;;34.77;100.00;96633.81;5045637;28;20236;-81
2021/07/28 10:47:16;;;;;;;9.77;5.97;;;;;;;34.95;100.00;96641.09;5052787;28;20276;-81
2021/07/28 10:49:50;;;;;;;6.05;4.60;;;;;;;35.15;100.00;96641.78;5053000;28;20183;-81
2021/07/28 10:52:47;;;;;;;10.38;5.72;;;;;;;35.28;100.00;96640.13;5052863;28;20186;-81
2021/07/28 10:55:21;;;;;;;13.35;4.75;;;;;;;35.39;100.00;96633.28;5053218;28;20209;-81
2021/07/28 10:58:21;;;;;;;11.90;5.40;;;;;;;35.08;100.00;96638.66;5052726;28;20221;-81
2021/07/28 11:00:54;;;;;;;7.57;5.78;;;;;;;35.16;100.00;96636.00;5053406;28;20228;-81
2021/07/28 11:03:30;;;;;;;10.05;5.57;;;;;;;35.28;100.00;96635.47;5052581;28;20710;-81
2021/07/28 11:06:16;;;;;;;8.80;5.22;;;;;;;35.30;100.00;96632.41;5053008;28;20547;-81
2021/07/28 11:08:43;;;;;;;12.50;5.65;;;;;;;35.53;100.00;96630.53;5052588;28;20647;-82
2021/07/28 11:11:11;;;;;;;7.40;5.63;;;;;;;35.54;100.00;96632.97;5052960;28;20614;-81
2021/07/28 11:13:45;;;;;;;10.02;6.07;;;;;;;35.62;100.00;96626.75;5052266;28;20234;-82
2021/07/28 11:16:16;;;;;;;5.70;5.15;;;;;;;35.58;100.00;96628.50;5052520;28;20225;-81
2021/07/28 11:18:46;;;;;;;8.32;5.25;;;;;;;35.91;100.00;96626.28;5052707;28;20189;-81
2021/07/28 11:21:15;;;;;;;9.77;5.22;;;;;;;35.96;100.00;96634.38;5052170;28;20197;-81
2021/07/28 11:23:45;;;;;;;9.52;6.22;;;;;;;35.73;100.00;96630.84;5052270;28;20225;-82
2021/07/28 11:26:21;;;;;;;5.63;4.80;;;;;;;35.79;100.00;96633.47;5052280;28;20182;-81
2021/07/28 11:28:49;;;;;;;14.57;5.80;;;;;;;35.93;100.00;96632.25;5052253;28;20190;-81
2021/07/28 11:31:25;;;;;;;8.60;6.15;;;;;;;35.87;100.00;96627.22;5052204;28;20241;-81
2021/07/28 11:33:52;;;;;;;10.80;5.47;;;;;;;35.84;100.00;96619.63;5052494;28;20217;-81